map of CUE home
CUE - Airport
Location
City:  Cuenca, Azuay, Ecuador
Name:Mariscal Lamar International Airport
ICAO:SECU
IATA:CUE

Details
Type:Airport (Aerodrome, Airfield)
Use:International (customs port of entry)
Latitude:253'22"S (-2.889466)
Longitude:7859'04"W (-78.984396)
Datum:WGS 1984
Elevation:8306 ft (2532 m)
Variation:2.78W (WMM2015 magnetic declination)
-0.16 annual change
Runways:1
Longest:6234 × 118 ft (1900 × 36 m), paved

Time
Time Zone:UTC-5
Local Time:

Weather
METAR:SECU 191600Z 06010KT 9999 OVC030 18/12 Q1026

Related Locations
Nearby:
Farthest:SZB: 12414 mi / 19978 km
Kuala Lumpur (Subang) [Sultan Abdul Aziz Shah Airport (Subang Intl)], 10, MY

Find:

   beyond  
but within

Other Information
Maps:
NOTAMs:
Links:
Sources:

  
  • flag of Ecuador
  • flag of Azuay
  

Sectional Chart

Flight Planning
at skyvector.com

Satellite Image

Google Maps Satellite view

 

Copyright © 2004-2018 Karl L. Swartz. All rights reserved.
The Great Circle Mapper name and logo are trademarks of the Great Circle Mapper.
All other trademarks mentioned herein belong to their respective owners.
Please see credits for attibutions and further copyright information.

  Follow gcmap on Facebook Follow gcmap on Twitter Follow gcmap on Google+ GCmap on LinkedIn

hCard Microformat

Geo Microformat